Time;durP1;ratioP1;P1;durP2;ratioP2;P2;SDS_P1;SDS_P2;PMS_P1;PMS_P2;Temp;Humidity;BMP_temperature;BMP_pressure;BME280_temperature;BME280_humidity;BME280_pressure;Samples;Min_cycle;Max_cycle;Signal;HPM_P1;HPM_P2
2023/01/04 00:01:28;;;;;;;21.58;13.38;;;;;;;;;;5016313;28;20067;-83
2023/01/04 00:03:55;;;;;;;23.02;14.48;;;;;;;;;;5011781;28;20136;-83
2023/01/04 00:06:23;;;;;;;22.75;15.02;;;;;;;;;;5011568;28;20054;-84
2023/01/04 00:08:51;;;;;;;21.10;13.77;;;;;;;;;;4994338;28;20517;-84
2023/01/04 00:11:20;;;;;;;17.85;12.65;;;;;;;;;;4993654;28;20121;-83
2023/01/04 00:13:48;;;;;;;22.80;13.95;;;;;;;;;;5011895;28;20410;-83
2023/01/04 00:16:17;;;;;;;19.98;13.45;;;;;;;;;;5012284;28;20046;-84
2023/01/04 00:18:44;;;;;;;19.30;12.98;;;;;;;;;;5012621;28;20046;-84
2023/01/04 00:21:13;;;;;;;22.80;13.55;;;;;;;;;;4995323;28;20069;-83
2023/01/04 00:23:41;;;;;;;20.92;13.07;;;;;;;;;;5013506;28;20057;-83
2023/01/04 00:26:10;;;;;;;20.15;13.43;;;;;;;;;;5013197;28;20052;-83
2023/01/04 00:28:37;;;;;;;17.90;13.13;;;;;;;;;;4996749;28;20046;-84
2023/01/04 00:31:05;;;;;;;21.15;13.48;;;;;;;;;;5005334;28;20042;-82
2023/01/04 00:33:33;;;;;;;20.65;14.05;;;;;;;;;;5007732;28;20058;-83
2023/01/04 00:36:02;;;;;;;22.98;13.95;;;;;;;;;;5025385;28;20054;-83
2023/01/04 00:38:29;;;;;;;19.65;12.88;;;;;;;;;;5025296;28;20053;-84
2023/01/04 00:40:57;;;;;;;18.88;12.52;;;;;;;;;;5015440;28;20461;-83
2023/01/04 00:43:24;;;;;;;20.65;11.70;;;;;;;;;;5013807;28;20053;-82
2023/01/04 00:45:52;;;;;;;19.27;12.68;;;;;;;;;;5014410;28;20065;-82
2023/01/04 00:48:19;;;;;;;17.63;11.88;;;;;;;;;;5012162;28;20121;-82
2023/01/04 00:50:47;;;;;;;22.17;13.13;;;;;;;;;;4995240;28;20050;-82
2023/01/04 00:53:15;;;;;;;16.77;12.32;;;;;;;;;;5012566;28;20125;-83
2023/01/04 00:55:43;;;;;;;16.98;12.25;;;;;;;;;;5013862;28;20057;-82
2023/01/04 00:58:10;;;;;;;16.83;12.55;;;;;;;;;;4995548;28;20156;-82
2023/01/04 01:00:38;;;;;;;15.90;11.95;;;;;;;;;;5013721;28;20058;-83
2023/01/04 01:03:07;;;;;;;18.98;13.15;;;;;;;;;;4996768;28;20371;-83
2023/01/04 01:05:35;;;;;;;13.88;11.00;;;;;;;;;;5012465;28;20053;-83
2023/01/04 01:08:23;;;;;;;24.25;13.77;;;;;;;;;;5001713;28;20042;-83
2023/01/04 01:10:51;;;;;;;16.77;12.30;;;;;;;;;;5009448;28;20049;-83
2023/01/04 01:13:19;;;;;;;13.93;10.60;;;;;;;;;;4991957;28;20132;-83
2023/01/04 01:15:47;;;;;;;16.00;11.25;;;;;;;;;;4993936;28;20046;-82
2023/01/04 01:18:14;;;;;;;21.33;13.38;;;;;;;;;;5014663;28;20153;-82
2023/01/04 01:20:43;;;;;;;22.67;13.07;;;;;;;;;;4996572;28;20076;-83
2023/01/04 01:23:14;;;;;;;26.33;14.40;;;;;;;;;;5014830;28;20129;-83
2023/01/04 01:25:41;;;;;;;21.77;12.13;;;;;;;;;;4998530;28;20130;-83
2023/01/04 01:28:09;;;;;;;33.42;13.80;;;;;;;;;;4996740;28;20281;-83
2023/01/04 01:30:40;;;;;;;27.05;13.07;;;;;;;;;;4996674;28;20073;-83
2023/01/04 01:33:08;;;;;;;20.38;12.13;;;;;;;;;;5013059;28;20592;-83
2023/01/04 01:35:36;;;;;;;30.02;12.98;;;;;;;;;;4995814;28;20577;-83
2023/01/04 01:38:04;;;;;;;27.60;11.68;;;;;;;;;;4996111;28;20104;-82
2023/01/04 01:40:31;;;;;;;39.25;11.77;;;;;;;;;;5017396;28;20103;-83
2023/01/04 01:42:59;;;;;;;35.80;11.65;;;;;;;;;;5017736;28;20363;-83
2023/01/04 01:45:28;;;;;;;25.50;11.70;;;;;;;;;;4997057;28;20046;-82
2023/01/04 01:47:58;;;;;;;18.13;10.35;;;;;;;;;;5014887;28;20053;-83
2023/01/04 01:50:28;;;;;;;26.65;11.45;;;;;;;;;;5014706;28;20133;-83
2023/01/04 01:53:00;;;;;;;26.20;11.45;;;;;;;;;;4996328;28;20058;-83
2023/01/04 01:55:28;;;;;;;25.05;12.85;;;;;;;;;;5013973;28;20096;-83
2023/01/04 01:57:55;;;;;;;21.15;11.93;;;;;;;;;;5015139;28;20062;-83
2023/01/04 02:00:22;;;;;;;26.33;12.18;;;;;;;;;;4997718;28;20053;-83
2023/01/04 02:02:57;;;;;;;31.13;11.40;;;;;;;;;;5014902;28;20473;-82
2023/01/04 02:05:25;;;;;;;20.75;12.13;;;;;;;;;;5014933;28;20057;-82
2023/01/04 02:07:53;;;;;;;24.52;11.88;;;;;;;;;;5015295;28;20509;-83
2023/01/04 02:10:21;;;;;;;20.75;11.40;;;;;;;;;;4997385;28;20053;-83
2023/01/04 02:12:51;;;;;;;23.38;11.55;;;;;;;;;;5016725;28;20077;-83
2023/01/04 02:15:19;;;;;;;23.65;11.38;;;;;;;;;;5024205;28;20093;-82
2023/01/04 02:18:01;;;;;;;27.00;10.80;;;;;;;;;;5028461;28;20054;-82
2023/01/04 02:20:47;;;;;;;14.80;11.02;;;;;;;;;;5011758;28;20127;-83
2023/01/04 02:23:33;;;;;;;27.85;10.90;;;;;;;;;;5024239;28;20089;-82
2023/01/04 02:26:19;;;;;;;29.25;10.88;;;;;;;;;;5014169;28;20093;-83
2023/01/04 02:28:46;;;;;;;31.75;10.48;;;;;;;;;;5013716;28;20537;-83
2023/01/04 02:31:40;;;;;;;25.27;9.68;;;;;;;;;;5015141;28;20056;-82
2023/01/04 02:34:07;;;;;;;32.95;9.35;;;;;;;;;;5009882;28;20041;-83
2023/01/04 02:36:47;;;;;;;18.80;8.68;;;;;;;;;;5014667;28;20054;-83
2023/01/04 02:39:20;;;;;;;32.42;9.20;;;;;;;;;;5015686;28;20054;-82
2023/01/04 02:41:58;;;;;;;29.75;10.18;;;;;;;;;;4996830;28;20080;-83
2023/01/04 02:44:51;;;;;;;20.27;8.48;;;;;;;;;;5011910;28;20121;-83
2023/01/04 02:50:29;;;;;;;31.42;10.57;;;;;;;;;;4993083;28;20462;-83
2023/01/04 02:50:32;;;;;;;21.83;9.40;;;;;;;;;;5011187;28;20050;-82
2023/01/04 02:53:26;;;;;;;38.80;9.77;;;;;;;;;;5014387;28;20108;-83
2023/01/04 02:55:56;;;;;;;44.50;8.45;;;;;;;;;;5009722;28;20050;-82
2023/01/04 02:58:32;;;;;;;23.92;9.15;;;;;;;;;;5012992;28;20050;-83
2023/01/04 03:06:52;;;;;;;16.40;9.38;;;;;;;;;;5014849;28;20050;-83
2023/01/04 03:09:23;;;;;;;24.30;8.68;;;;;;;;;;5015425;28;20052;-83
2023/01/04 03:14:46;;;;;;;24.53;10.07;;;;;;;;;;5012134;28;20069;-84
2023/01/04 03:17:14;;;;;;;14.10;9.43;;;;;;;;;;5012807;28;20057;-83
2023/01/04 03:19:52;;;;;;;19.00;9.70;;;;;;;;;;5012651;28;20054;-83
2023/01/04 03:36:37;;;;;;;16.70;9.88;;;;;;;;;;4995242;28;20383;-83
2023/01/04 03:50:41;;;;;;;14.43;9.88;;;;;;;;;;4995847;28;20062;-84
2023/01/04 03:53:09;;;;;;;15.43;10.73;;;;;;;;;;5014028;28;20045;-83
2023/01/04 03:55:37;;;;;;;11.35;8.60;;;;;;;;;;5013407;28;20112;-83
2023/01/04 03:58:04;;;;;;;13.02;9.75;;;;;;;;;;4996771;28;20344;-82
2023/01/04 04:00:32;;;;;;;12.85;9.75;;;;;;;;;;5027041;28;20123;-83
2023/01/04 04:03:11;;;;;;;13.80;9.98;;;;;;;;;;5006199;28;20072;-83
2023/01/04 04:08:29;;;;;;;13.00;9.50;;;;;;;;;;5015635;28;20406;-84
2023/01/04 04:11:28;;;;;;;13.25;9.73;;;;;;;;;;5006837;23;20049;-83
2023/01/04 04:13:46;;;;;;;15.65;10.02;;;;;;;;;;5005269;28;20053;-83
2023/01/04 04:16:13;;;;;;;12.88;9.13;;;;;;;;;;5013336;28;20459;-83
2023/01/04 04:18:41;;;;;;;12.57;9.85;;;;;;;;;;4995462;28;20181;-82
2023/01/04 04:21:09;;;;;;;12.10;8.77;;;;;;;;;;5012702;28;20056;-81
2023/01/04 04:23:36;;;;;;;12.70;9.70;;;;;;;;;;4995248;28;20422;-82
2023/01/04 04:26:04;;;;;;;14.25;10.07;;;;;;;;;;4994971;28;20041;-81
2023/01/04 04:28:32;;;;;;;14.02;9.75;;;;;;;;;;5011665;28;20059;-82
2023/01/04 04:30:59;;;;;;;13.45;10.02;;;;;;;;;;5011638;28;20046;-82
2023/01/04 04:33:27;;;;;;;16.67;11.52;;;;;;;;;;5004167;28;20412;-80
2023/01/04 04:35:54;;;;;;;15.27;10.93;;;;;;;;;;5025144;28;20056;-81
2023/01/04 04:38:22;;;;;;;15.23;10.80;;;;;;;;;;5001479;28;20420;-82
2023/01/04 04:43:36;;;;;;;15.27;10.25;;;;;;;;;;5013567;28;20064;-82
2023/01/04 04:46:03;;;;;;;16.10;11.00;;;;;;;;;;4995565;28;20054;-82
2023/01/04 04:48:31;;;;;;;20.02;10.63;;;;;;;;;;4995728;28;20510;-82
2023/01/04 04:50:58;;;;;;;14.95;10.10;;;;;;;;;;5011173;28;20519;-83
2023/01/04 04:53:26;;;;;;;16.25;10.43;;;;;;;;;;5013525;28;20136;-81
2023/01/04 04:55:54;;;;;;;14.32;9.77;;;;;;;;;;4996713;28;20065;-82
2023/01/04 04:58:21;;;;;;;13.63;9.82;;;;;;;;;;5014015;28;20156;-81
2023/01/04 05:00:49;;;;;;;14.15;10.18;;;;;;;;;;5014243;28;20054;-82
2023/01/04 05:03:16;;;;;;;12.50;9.52;;;;;;;;;;5014363;28;20049;-82
2023/01/04 05:05:44;;;;;;;14.30;10.05;;;;;;;;;;5014851;28;20057;-83
2023/01/04 05:08:12;;;;;;;15.00;10.75;;;;;;;;;;5014899;28;20053;-82
2023/01/04 05:10:40;;;;;;;14.32;9.82;;;;;;;;;;5015512;28;20069;-82
2023/01/04 05:13:09;;;;;;;15.63;10.38;;;;;;;;;;5015493;28;20056;-82
2023/01/04 05:15:38;;;;;;;14.70;9.95;;;;;;;;;;5014802;28;20069;-82
2023/01/04 05:18:06;;;;;;;14.45;10.52;;;;;;;;;;4998289;28;20067;-82
2023/01/04 05:20:34;;;;;;;15.00;10.57;;;;;;;;;;5015403;28;20511;-82
2023/01/04 05:23:02;;;;;;;13.90;10.48;;;;;;;;;;5016344;28;20482;-81
2023/01/04 05:25:30;;;;;;;13.80;10.07;;;;;;;;;;5015745;28;20080;-81
2023/01/04 05:27:57;;;;;;;14.18;10.25;;;;;;;;;;5015154;28;20471;-82
2023/01/04 05:33:11;;;;;;;15.45;9.98;;;;;;;;;;5016543;28;20100;-81
2023/01/04 05:35:39;;;;;;;12.45;9.20;;;;;;;;;;4998844;28;20309;-83
2023/01/04 05:38:07;;;;;;;18.45;11.25;;;;;;;;;;5016941;28;20129;-82
2023/01/04 05:40:34;;;;;;;15.23;10.30;;;;;;;;;;5015894;28;20054;-83
2023/01/04 05:43:02;;;;;;;15.95;10.93;;;;;;;;;;4998750;28;20077;-81
2023/01/04 05:45:29;;;;;;;12.25;8.85;;;;;;;;;;4997953;28;20045;-87
2023/01/04 05:47:57;;;;;;;16.02;11.68;;;;;;;;;;5015205;28;20400;-82
2023/01/04 05:50:24;;;;;;;15.90;9.98;;;;;;;;;;5015730;28;20042;-82
2023/01/04 05:52:52;;;;;;;15.15;9.93;;;;;;;;;;4998167;28;20100;-82
2023/01/04 05:55:19;;;;;;;12.75;7.75;;;;;;;;;;4998129;28;20046;-82
2023/01/04 05:57:47;;;;;;;20.75;10.75;;;;;;;;;;5014427;28;20403;-83
2023/01/04 06:00:15;;;;;;;14.68;9.90;;;;;;;;;;5001154;28;20054;-82
2023/01/04 06:02:43;;;;;;;16.42;10.05;;;;;;;;;;5024754;28;20050;-82
2023/01/04 06:05:11;;;;;;;16.00;10.10;;;;;;;;;;5007770;28;20045;-80
2023/01/04 06:07:39;;;;;;;21.65;11.32;;;;;;;;;;5017363;28;20045;-82
2023/01/04 06:10:09;;;;;;;18.80;10.05;;;;;;;;;;5014392;28;20049;-83
2023/01/04 06:12:37;;;;;;;16.58;10.23;;;;;;;;;;5013661;28;20042;-81
2023/01/04 06:15:05;;;;;;;19.10;9.85;;;;;;;;;;5013534;28;20100;-81
2023/01/04 06:17:33;;;;;;;17.10;9.82;;;;;;;;;;4996266;28;20046;-82
2023/01/04 06:20:02;;;;;;;18.48;10.23;;;;;;;;;;5025099;28;20049;-82
2023/01/04 06:22:29;;;;;;;20.00;10.75;;;;;;;;;;5002921;28;20061;-81
2023/01/04 06:24:57;;;;;;;18.10;9.60;;;;;;;;;;4999010;28;20130;-81
2023/01/04 06:27:25;;;;;;;17.63;10.18;;;;;;;;;;5024112;28;20046;-82
2023/01/04 06:29:52;;;;;;;17.45;10.43;;;;;;;;;;5015050;28;20050;-81
2023/01/04 06:32:19;;;;;;;20.67;10.15;;;;;;;;;;5014248;28;20077;-82
2023/01/04 06:34:47;;;;;;;20.00;11.05;;;;;;;;;;5021381;28;20084;-82
2023/01/04 06:37:14;;;;;;;17.00;10.10;;;;;;;;;;4999342;28;20145;-82
2023/01/04 06:39:42;;;;;;;20.55;11.00;;;;;;;;;;4996878;28;20054;-83
2023/01/04 06:42:43;;;;;;;18.90;11.05;;;;;;;;;;5019179;28;20057;-82
2023/01/04 06:44:57;;;;;;;20.08;11.27;;;;;;;;;;5018086;28;20104;-81
2023/01/04 06:47:25;;;;;;;26.52;12.13;;;;;;;;;;5015514;28;20201;-82
2023/01/04 06:49:52;;;;;;;20.85;10.95;;;;;;;;;;5014062;28;20100;-82
2023/01/04 06:52:20;;;;;;;22.38;11.57;;;;;;;;;;4997188;28;20415;-82
2023/01/04 06:54:47;;;;;;;20.35;10.75;;;;;;;;;;4996753;28;20054;-82
2023/01/04 06:57:15;;;;;;;21.00;11.82;;;;;;;;;;4997457;28;20053;-83
2023/01/04 06:59:42;;;;;;;19.30;11.13;;;;;;;;;;4997119;28;20054;-82
2023/01/04 07:02:13;;;;;;;21.15;11.20;;;;;;;;;;5015160;28;20058;-83
2023/01/04 07:04:42;;;;;;;20.25;10.82;;;;;;;;;;5019376;28;20109;-82
2023/01/04 07:07:10;;;;;;;25.08;12.05;;;;;;;;;;5027462;28;20049;-82
2023/01/04 07:09:38;;;;;;;20.33;11.88;;;;;;;;;;5023691;28;20046;-83
2023/01/04 07:12:06;;;;;;;20.88;12.20;;;;;;;;;;5022896;28;20493;-82
2023/01/04 07:14:33;;;;;;;17.75;11.02;;;;;;;;;;5023812;28;20046;-82
2023/01/04 07:17:01;;;;;;;18.77;10.88;;;;;;;;;;5024883;28;20049;-81
2023/01/04 07:19:28;;;;;;;19.35;10.45;;;;;;;;;;5028285;28;20054;-81
2023/01/04 07:21:57;;;;;;;22.38;11.82;;;;;;;;;;5033834;28;20058;-82
2023/01/04 07:24:25;;;;;;;18.27;11.32;;;;;;;;;;5033916;28;20050;-82
2023/01/04 07:26:59;;;;;;;20.73;11.48;;;;;;;;;;5017509;28;20145;-82
2023/01/04 07:29:26;;;;;;;18.45;11.52;;;;;;;;;;5019519;28;20053;-82
2023/01/04 07:31:54;;;;;;;22.90;12.38;;;;;;;;;;5009923;28;20049;-82
2023/01/04 07:34:23;;;;;;;21.30;12.35;;;;;;;;;;5020805;28;20053;-82
2023/01/04 07:36:51;;;;;;;21.63;11.32;;;;;;;;;;4997903;28;20058;-83
2023/01/04 07:39:18;;;;;;;18.60;11.43;;;;;;;;;;4995998;28;20136;-82
2023/01/04 07:41:46;;;;;;;21.25;12.68;;;;;;;;;;5013913;28;20046;-81
2023/01/04 07:44:17;;;;;;;19.50;11.87;;;;;;;;;;4996599;28;20145;-82
2023/01/04 07:46:45;;;;;;;19.60;11.32;;;;;;;;;;4996772;28;20300;-83
2023/01/04 07:49:14;;;;;;;17.00;10.70;;;;;;;;;;5014337;28;20050;-82
2023/01/04 07:51:45;;;;;;;21.27;12.40;;;;;;;;;;5013544;28;20050;-81
2023/01/04 07:54:12;;;;;;;15.02;9.98;;;;;;;;;;5010420;28;20483;-82
2023/01/04 07:56:40;;;;;;;16.25;10.90;;;;;;;;;;5014519;28;20439;-81
2023/01/04 07:59:08;;;;;;;15.80;9.95;;;;;;;;;;4997102;28;20499;-82
2023/01/04 08:01:37;;;;;;;17.92;11.13;;;;;;;;;;5014628;28;20289;-81
2023/01/04 08:04:09;;;;;;;15.15;10.23;;;;;;;;;;4996572;28;20062;-81
2023/01/04 08:06:37;;;;;;;12.52;9.48;;;;;;;;;;5014812;28;20356;-82
2023/01/04 08:09:05;;;;;;;14.70;10.23;;;;;;;;;;4995759;28;20088;-82
2023/01/04 08:11:33;;;;;;;18.70;10.07;;;;;;;;;;5014603;28;20046;-82
2023/01/04 08:14:01;;;;;;;13.55;9.75;;;;;;;;;;5014328;28;20494;-82
2023/01/04 08:16:31;;;;;;;12.82;10.45;;;;;;;;;;5015155;28;20069;-82
2023/01/04 08:19:00;;;;;;;26.00;20.40;;;;;;;;;;5014105;28;20041;-82
2023/01/04 08:21:29;;;;;;;16.08;9.88;;;;;;;;;;5014895;28;20149;-82
2023/01/04 08:23:56;;;;;;;11.02;8.52;;;;;;;;;;4980528;28;20539;-81
2023/01/04 08:26:23;;;;;;;12.38;9.20;;;;;;;;;;5016568;28;20054;-83
2023/01/04 08:28:51;;;;;;;13.32;9.48;;;;;;;;;;5018552;28;20045;-82
2023/01/04 08:31:23;;;;;;;12.73;10.02;;;;;;;;;;5020058;28;20049;-86
2023/01/04 08:33:52;;;;;;;12.70;8.98;;;;;;;;;;5020434;28;20073;-83
2023/01/04 08:36:20;;;;;;;13.65;9.57;;;;;;;;;;5019803;28;20042;-81
2023/01/04 08:38:55;;;;;;;14.23;9.93;;;;;;;;;;5018568;28;20061;-83
2023/01/04 08:41:29;;;;;;;9.73;7.47;;;;;;;;;;5019362;28;20084;-82
2023/01/04 08:44:18;;;;;;;12.15;9.10;;;;;;;;;;5023815;28;20042;-82
2023/01/04 08:46:49;;;;;;;13.02;8.82;;;;;;;;;;5004311;28;20085;-82
2023/01/04 08:49:17;;;;;;;10.43;8.02;;;;;;;;;;5022581;28;20069;-83
2023/01/04 08:51:45;;;;;;;11.23;8.43;;;;;;;;;;5004111;28;20053;-81
2023/01/04 08:54:12;;;;;;;10.05;7.50;;;;;;;;;;5019525;28;20050;-81
2023/01/04 08:56:40;;;;;;;13.35;8.88;;;;;;;;;;5022078;28;20049;-82
2023/01/04 08:59:09;;;;;;;10.32;6.80;;;;;;;;;;5025745;28;20080;-80
2023/01/04 09:01:38;;;;;;;12.25;9.35;;;;;;;;;;5029679;28;20053;-81
2023/01/04 09:04:09;;;;;;;12.52;9.15;;;;;;;;;;5022048;28;20053;-82
2023/01/04 09:06:37;;;;;;;9.45;8.50;;;;;;;;;;5020429;28;20422;-81
2023/01/04 09:09:04;;;;;;;10.18;7.60;;;;;;;;;;5019903;28;20061;-82
2023/01/04 09:11:34;;;;;;;11.50;8.13;;;;;;;;;;5020127;28;20058;-82
2023/01/04 09:14:02;;;;;;;11.23;8.38;;;;;;;;;;5002243;28;20133;-82
2023/01/04 09:16:36;;;;;;;9.75;7.72;;;;;;;;;;5019258;28;20049;-83
2023/01/04 09:19:04;;;;;;;8.05;6.47;;;;;;;;;;5017704;28;20534;-81
2023/01/04 09:21:34;;;;;;;9.30;7.43;;;;;;;;;;5018331;28;20478;-81
2023/01/04 09:24:02;;;;;;;9.27;7.40;;;;;;;;;;5017828;28;20408;-82
2023/01/04 09:26:29;;;;;;;9.60;7.75;;;;;;;;;;5000655;28;20567;-83
2023/01/04 09:28:57;;;;;;;9.10;7.05;;;;;;;;;;4999425;28;20530;-82
2023/01/04 09:31:25;;;;;;;8.00;6.55;;;;;;;;;;5017692;28;20052;-83
2023/01/04 09:33:54;;;;;;;8.95;7.78;;;;;;;;;;5017109;28;20101;-82
2023/01/04 09:36:41;;;;;;;8.52;7.15;;;;;;;;;;5016162;28;20507;-82
2023/01/04 09:39:09;;;;;;;11.90;9.10;;;;;;;;;;5016960;28;20069;-81
2023/01/04 09:41:56;;;;;;;9.82;7.93;;;;;;;;;;5015541;28;20054;-83
2023/01/04 09:44:33;;;;;;;6.90;6.13;;;;;;;;;;5016987;28;20065;-82
2023/01/04 09:47:29;;;;;;;10.68;7.45;;;;;;;;;;4999258;28;20046;-83
2023/01/04 09:50:04;;;;;;;8.80;7.55;;;;;;;;;;5000860;28;20049;-82
2023/01/04 09:52:46;;;;;;;7.38;6.45;;;;;;;;;;5018813;28;20579;-81
2023/01/04 09:55:18;;;;;;;7.25;6.28;;;;;;;;;;5019725;28;20475;-82
2023/01/04 09:58:13;;;;;;;7.50;6.70;;;;;;;;;;5016469;28;20483;-80
2023/01/04 10:00:44;;;;;;;7.45;6.72;;;;;;;;;;5015618;28;20082;-82
2023/01/04 10:03:25;;;;;;;7.63;6.78;;;;;;;;;;5000847;28;20050;-81
2023/01/04 10:05:54;;;;;;;8.57;7.00;;;;;;;;;;5020244;28;20053;-82
2023/01/04 10:08:23;;;;;;;8.82;7.47;;;;;;;;;;5002744;28;20046;-82
2023/01/04 10:11:11;;;;;;;9.98;7.35;;;;;;;;;;5018594;22;20049;-84
2023/01/04 10:14:01;;;;;;;9.20;6.95;;;;;;;;;;4978176;28;20046;-81
2023/01/04 10:16:41;;;;;;;7.50;6.63;;;;;;;;;;4978210;28;20085;-81
2023/01/04 10:19:31;;;;;;;7.88;6.45;;;;;;;;;;4964011;28;20090;-82
2023/01/04 10:22:29;;;;;;;7.53;6.40;;;;;;;;;;4978584;28;20503;-81
2023/01/04 10:24:57;;;;;;;9.30;7.00;;;;;;;;;;4977056;28;20042;-81
2023/01/04 10:27:36;;;;;;;8.70;7.18;;;;;;;;;;4977692;28;20050;-83
2023/01/04 10:30:28;;;;;;;7.13;6.43;;;;;;;;;;4978104;28;20072;-82
2023/01/04 10:33:00;;;;;;;7.70;6.32;;;;;;;;;;4975844;28;20047;-80
2023/01/04 10:35:28;;;;;;;31.27;22.15;;;;;;;;;;4977987;28;20082;-82
2023/01/04 10:38:00;;;;;;;8.40;7.22;;;;;;;;;;4977629;28;20074;-81
2023/01/04 10:40:28;;;;;;;11.18;7.10;;;;;;;;;;4977312;28;20046;-82
2023/01/04 10:42:59;;;;;;;10.10;6.95;;;;;;;;;;4976305;28;20051;-83
2023/01/04 10:45:32;;;;;;;7.90;7.10;;;;;;;;;;4975652;28;20436;-81
2023/01/04 10:48:06;;;;;;;7.07;6.38;;;;;;;;;;4976907;28;20066;-83
2023/01/04 10:50:55;;;;;;;6.85;5.82;;;;;;;;;;4975215;28;20047;-82
2023/01/04 10:53:26;;;;;;;5.70;5.03;;;;;;;;;;4974475;28;20058;-80
2023/01/04 10:56:14;;;;;;;6.53;5.90;;;;;;;;;;4975560;28;20059;-84
2023/01/04 10:59:03;;;;;;;5.55;5.00;;;;;;;;;;4977838;28;20138;-81
2023/01/04 11:01:37;;;;;;;6.13;5.13;;;;;;;;;;4981205;28;20055;-81
2023/01/04 11:04:24;;;;;;;5.72;5.20;;;;;;;;;;4976837;28;20142;-81
2023/01/04 11:06:54;;;;;;;6.93;5.93;;;;;;;;;;4977800;28;20061;-83
2023/01/04 11:09:24;;;;;;;6.22;5.57;;;;;;;;;;4976906;28;20046;-82
2023/01/04 11:11:53;;;;;;;6.90;6.20;;;;;;;;;;4976403;28;20054;-79
2023/01/04 11:14:22;;;;;;;5.93;5.32;;;;;;;;;;4977612;28;20062;-85
2023/01/04 11:16:51;;;;;;;7.40;6.40;;;;;;;;;;4974642;28;20158;-81
2023/01/04 11:19:23;;;;;;;7.63;6.18;;;;;;;;;;4977513;28;20058;-85
2023/01/04 11:22:11;;;;;;;5.72;5.22;;;;;;;;;;4975973;28;20047;-81
2023/01/04 11:24:39;;;;;;;5.72;5.18;;;;;;;;;;4976063;28;20106;-80
2023/01/04 11:27:30;;;;;;;6.22;5.63;;;;;;;;;;4975805;28;20043;-82
2023/01/04 11:30:11;;;;;;;5.63;5.13;;;;;;;;;;4989508;28;20046;-84
2023/01/04 11:32:41;;;;;;;7.57;6.22;;;;;;;;;;4987462;28;20065;-85
2023/01/04 11:35:08;;;;;;;9.13;7.20;;;;;;;;;;4979063;28;20129;-82
2023/01/04 11:37:38;;;;;;;6.82;6.13;;;;;;;;;;4977241;28;20058;-81
2023/01/04 11:40:20;;;;;;;6.18;5.57;;;;;;;;;;4974998;28;20070;-81
2023/01/04 11:42:51;;;;;;;6.72;5.50;;;;;;;;;;4975310;28;20129;-81
2023/01/04 11:45:27;;;;;;;9.68;6.72;;;;;;;;;;4976146;28;20101;-85
2023/01/04 11:47:59;;;;;;;6.68;6.03;;;;;;;;;;4975642;28;20058;-81
2023/01/04 11:50:40;;;;;;;7.03;5.88;;;;;;;;;;4980447;28;20054;-82
2023/01/04 11:53:27;;;;;;;6.47;5.40;;;;;;;;;;4975992;28;20047;-81
2023/01/04 11:56:08;;;;;;;6.30;5.70;;;;;;;;;;4976789;28;20057;-81
2023/01/04 11:58:35;;;;;;;6.88;5.82;;;;;;;;;;4976400;28;20054;-82
2023/01/04 12:01:03;;;;;;;7.60;6.32;;;;;;;;;;4976037;28;20133;-81
2023/01/04 12:03:37;;;;;;;7.13;6.43;;;;;;;;;;4976732;28;20126;-84
2023/01/04 12:06:17;;;;;;;7.50;6.72;;;;;;;;;;4978671;28;20198;-83
2023/01/04 12:08:44;;;;;;;6.07;5.57;;;;;;;;;;4980869;28;20046;-82
2023/01/04 12:11:31;;;;;;;6.60;5.88;;;;;;;;;;4982127;28;20130;-83
2023/01/04 12:13:59;;;;;;;7.10;5.70;;;;;;;;;;4975277;28;20290;-81
2023/01/04 12:16:26;;;;;;;6.60;5.53;;;;;;;;;;4975869;28;20039;-83
2023/01/04 12:18:54;;;;;;;6.80;5.78;;;;;;;;;;4977742;28;20098;-81
2023/01/04 12:21:25;;;;;;;8.50;7.30;;;;;;;;;;4977386;28;20089;-81
2023/01/04 12:23:53;;;;;;;10.45;9.35;;;;;;;;;;4976657;28;20422;-84
2023/01/04 12:26:24;;;;;;;7.03;5.65;;;;;;;;;;4975901;28;20059;-83
2023/01/04 12:29:10;;;;;;;10.63;7.78;;;;;;;;;;4973910;28;20043;-83
2023/01/04 12:31:38;;;;;;;6.15;5.55;;;;;;;;;;4973652;28;20047;-83
2023/01/04 12:34:24;;;;;;;6.75;6.03;;;;;;;;;;4974494;28;20043;-81
2023/01/04 12:36:52;;;;;;;6.60;5.93;;;;;;;;;;4973430;28;20097;-81
2023/01/04 12:39:22;;;;;;;8.50;7.07;;;;;;;;;;4976545;28;20477;-81
2023/01/04 12:42:03;;;;;;;5.80;5.28;;;;;;;;;;4973909;28;20066;-84
2023/01/04 12:44:42;;;;;;;6.13;5.50;;;;;;;;;;4973176;28;20361;-80
2023/01/04 12:50:19;;;;;;;10.18;5.47;;;;;;;;;;4974697;28;20047;-82
2023/01/04 12:52:48;;;;;;;6.30;5.70;;;;;;;;;;4973438;28;20146;-81
2023/01/04 12:55:40;;;;;;;6.28;5.57;;;;;;;;;;4974851;28;20051;-81
2023/01/04 12:58:29;;;;;;;6.45;5.85;;;;;;;;;;4973428;28;20051;-83
2023/01/04 13:01:26;;;;;;;6.55;5.88;;;;;;;;;;4975029;28;20086;-81
2023/01/04 13:04:02;;;;;;;6.22;5.47;;;;;;;;;;4974364;28;20051;-82
2023/01/04 13:06:35;;;;;;;6.88;6.10;;;;;;;;;;4975814;28;20073;-83
2023/01/04 13:09:02;;;;;;;6.78;6.10;;;;;;;;;;4974285;28;20066;-85
2023/01/04 13:11:38;;;;;;;7.40;6.10;;;;;;;;;;4973751;28;20074;-81
2023/01/04 13:14:09;;;;;;;6.72;5.80;;;;;;;;;;4981762;28;20061;-84
2023/01/04 13:16:46;;;;;;;6.23;5.63;;;;;;;;;;4983504;28;20055;-81
2023/01/04 13:19:20;;;;;;;6.47;5.75;;;;;;;;;;4987109;28;20106;-81
2023/01/04 13:21:49;;;;;;;12.02;8.05;;;;;;;;;;4977797;28;20042;-82
2023/01/04 13:24:21;;;;;;;10.27;7.40;;;;;;;;;;4978977;28;20046;-83
2023/01/04 13:26:49;;;;;;;9.02;7.20;;;;;;;;;;4978330;28;20565;-81
2023/01/04 13:29:17;;;;;;;8.02;6.60;;;;;;;;;;4977630;28;20057;-81
2023/01/04 13:31:46;;;;;;;9.98;8.20;;;;;;;;;;4978867;28;20067;-82
2023/01/04 13:34:15;;;;;;;10.27;8.45;;;;;;;;;;4977491;28;20063;-83
2023/01/04 13:36:43;;;;;;;8.35;6.95;;;;;;;;;;4977033;28;20039;-81
2023/01/04 13:39:12;;;;;;;8.80;7.68;;;;;;;;;;4977229;28;20125;-85
2023/01/04 13:41:43;;;;;;;8.43;7.47;;;;;;;;;;4978498;28;20058;-81
2023/01/04 13:44:14;;;;;;;8.80;7.55;;;;;;;;;;4978861;28;20093;-85
2023/01/04 13:46:42;;;;;;;8.50;7.53;;;;;;;;;;4977235;28;20090;-83
2023/01/04 13:49:11;;;;;;;8.35;7.45;;;;;;;;;;4978031;28;20047;-81
2023/01/04 13:51:39;;;;;;;9.48;7.68;;;;;;;;;;4977794;28;20055;-83
2023/01/04 13:54:16;;;;;;;7.88;7.07;;;;;;;;;;4976962;28;20499;-81
2023/01/04 13:56:44;;;;;;;7.60;6.75;;;;;;;;;;4976823;28;20474;-83
2023/01/04 13:59:19;;;;;;;10.23;7.15;;;;;;;;;;4978426;28;20057;-82
2023/01/04 14:01:50;;;;;;;8.00;7.07;;;;;;;;;;4979177;28;20058;-81
2023/01/04 14:04:25;;;;;;;8.95;6.80;;;;;;;;;;4981367;28;20100;-85
2023/01/04 14:06:56;;;;;;;10.65;7.35;;;;;;;;;;4980300;28;20051;-81
2023/01/04 14:09:25;;;;;;;9.95;8.32;;;;;;;;;;4976504;28;20549;-81
2023/01/04 14:12:03;;;;;;;7.63;6.85;;;;;;;;;;4975676;28;20051;-83
2023/01/04 14:14:39;;;;;;;8.10;6.93;;;;;;;;;;4977396;28;20101;-82
2023/01/04 14:17:09;;;;;;;8.95;7.10;;;;;;;;;;4975647;28;20636;-82
2023/01/04 14:19:41;;;;;;;7.85;7.03;;;;;;;;;;4976670;28;20077;-84
2023/01/04 14:22:28;;;;;;;8.50;7.20;;;;;;;;;;4976333;28;20055;-82
2023/01/04 14:24:57;;;;;;;8.40;7.38;;;;;;;;;;4976419;28;20422;-81
2023/01/04 14:27:37;;;;;;;8.68;6.88;;;;;;;;;;4977027;28;20086;-83
2023/01/04 14:30:15;;;;;;;8.07;7.25;;;;;;;;;;4976372;28;20501;-82
2023/01/04 14:32:52;;;;;;;8.50;7.60;;;;;;;;;;4975588;28;20053;-80
2023/01/04 14:35:20;;;;;;;8.02;7.15;;;;;;;;;;4974475;28;20363;-82
2023/01/04 14:37:48;;;;;;;8.15;7.22;;;;;;;;;;4976871;28;20399;-84
2023/01/04 14:40:29;;;;;;;8.35;7.47;;;;;;;;;;4975250;28;20050;-81
2023/01/04 14:42:57;;;;;;;8.10;7.30;;;;;;;;;;4976140;28;20059;-81
2023/01/04 14:45:25;;;;;;;8.07;7.13;;;;;;;;;;4976114;28;20053;-81
2023/01/04 14:47:52;;;;;;;9.05;7.75;;;;;;;;;;4975333;28;20141;-81
2023/01/04 14:50:19;;;;;;;8.20;7.28;;;;;;;;;;4976669;28;20051;-80
2023/01/04 14:52:53;;;;;;;9.88;8.57;;;;;;;;;;4976179;28;20050;-82
2023/01/04 14:55:22;;;;;;;9.20;8.30;;;;;;;;;;4975226;28;20107;-82
2023/01/04 14:57:50;;;;;;;9.32;8.02;;;;;;;;;;4973631;28;20051;-83
2023/01/04 15:00:17;;;;;;;12.45;7.43;;;;;;;;;;4973042;28;20588;-83
2023/01/04 15:02:50;;;;;;;10.18;8.43;;;;;;;;;;4983702;28;20074;-83
2023/01/04 15:05:18;;;;;;;9.73;7.90;;;;;;;;;;4995536;28;20054;-83
2023/01/04 15:07:46;;;;;;;8.45;7.57;;;;;;;;;;5000667;28;20148;-80
2023/01/04 15:10:25;;;;;;;9.85;8.82;;;;;;;;;;4982919;28;20050;-82
2023/01/04 15:12:53;;;;;;;8.90;7.43;;;;;;;;;;4985403;28;20062;-83
2023/01/04 15:15:21;;;;;;;36.97;25.88;;;;;;;;;;4973842;28;20483;-82
2023/01/04 15:17:48;;;;;;;10.68;8.15;;;;;;;;;;4973957;28;20133;-83
2023/01/04 15:20:15;;;;;;;9.80;7.93;;;;;;;;;;4975089;28;20047;-81
2023/01/04 15:22:43;;;;;;;10.35;8.63;;;;;;;;;;4973609;28;20063;-83
2023/01/04 15:25:11;;;;;;;9.65;8.65;;;;;;;;;;4980379;28;20543;-85
2023/01/04 15:27:38;;;;;;;10.52;8.93;;;;;;;;;;4985002;28;20070;-84
2023/01/04 15:30:15;;;;;;;10.15;8.48;;;;;;;;;;4992697;28;20098;-82
2023/01/04 15:33:04;;;;;;;10.57;8.68;;;;;;;;;;4986026;28;20102;-83
2023/01/04 15:35:31;;;;;;;10.35;8.90;;;;;;;;;;4973492;28;20092;-83
2023/01/04 15:37:59;;;;;;;10.98;8.52;;;;;;;;;;4978436;28;20047;-82
2023/01/04 15:40:40;;;;;;;;;;;;;;;;;;;;;
2023/01/04 15:43:48;;;;;;;11.70;9.93;;;;;;;;;;4977862;28;20054;-82